Time;durP1;ratioP1;P1;durP2;ratioP2;P2;SDS_P1;SDS_P2;PMS_P1;PMS_P2;Temp;Humidity;BMP_temperature;BMP_pressure;BME280_temperature;BME280_humidity;BME280_pressure;Samples;Min_cycle;Max_cycle;Signal;HPM_P1;HPM_P2
2022/03/30 00:01:18;;;;;;;36.47;21.48;;;10.50;99.90;;;;;;5033204;28;20167;-47
2022/03/30 00:03:44;;;;;;;34.88;21.63;;;10.50;99.90;;;;;;5032666;28;20653;-46
2022/03/30 00:06:09;;;;;;;33.13;19.17;;;10.50;99.90;;;;;;5032768;28;20585;-48
2022/03/30 00:08:35;;;;;;;33.33;20.25;;;10.40;99.90;;;;;;5032588;28;20171;-47
2022/03/30 00:11:01;;;;;;;33.20;20.65;;;10.40;99.90;;;;;;5032591;28;20631;-46
2022/03/30 00:13:27;;;;;;;33.17;19.25;;;10.30;99.90;;;;;;5032544;28;20241;-47
2022/03/30 00:15:53;;;;;;;38.97;21.83;;;10.30;99.90;;;;;;5032579;28;20226;-47
2022/03/30 00:18:19;;;;;;;33.42;19.50;;;10.30;99.90;;;;;;5033001;28;20577;-46
2022/03/30 00:20:45;;;;;;;34.53;19.95;;;10.20;99.90;;;;;;5032418;28;20661;-47
2022/03/30 00:23:10;;;;;;;33.58;20.52;;;10.20;99.90;;;;;;5032172;28;20176;-46
2022/03/30 00:25:36;;;;;;;37.05;20.80;;;10.20;99.90;;;;;;5032307;28;20245;-46
2022/03/30 00:28:02;;;;;;;36.50;20.95;;;10.20;99.90;;;;;;5032342;28;20163;-47
2022/03/30 00:30:29;;;;;;;37.33;20.35;;;10.20;99.90;;;;;;5032508;28;20171;-46
2022/03/30 00:32:55;;;;;;;34.38;20.23;;;10.20;99.90;;;;;;5032263;28;20171;-47
2022/03/30 00:35:20;;;;;;;33.35;20.70;;;10.20;99.90;;;;;;5047790;28;20673;-46
2022/03/30 00:37:46;;;;;;;32.58;20.88;;;10.30;99.90;;;;;;5032054;28;20742;-47
2022/03/30 00:40:14;;;;;;;34.40;21.13;;;10.30;99.90;;;;;;5032104;28;20163;-47
2022/03/30 00:42:40;;;;;;;30.90;20.50;;;10.30;99.90;;;;;;5032122;28;20175;-47
2022/03/30 00:45:13;;;;;;;42.22;23.00;;;10.30;99.90;;;;;;5032179;28;20571;-47
2022/03/30 00:47:39;;;;;;;33.53;20.35;;;10.20;99.90;;;;;;5031929;28;20211;-47
2022/03/30 00:50:07;;;;;;;31.63;20.00;;;10.20;99.90;;;;;;5032105;28;20163;-47
2022/03/30 00:52:32;;;;;;;34.38;20.20;;;10.20;99.90;;;;;;5032075;28;20175;-47
2022/03/30 00:54:58;;;;;;;34.60;21.08;;;10.20;99.90;;;;;;5032024;28;20534;-48
2022/03/30 00:57:26;;;;;;;33.53;20.63;;;10.20;99.90;;;;;;5031891;28;20281;-47
2022/03/30 00:59:52;;;;;;;30.58;19.88;;;10.20;99.90;;;;;;5032087;28;20167;-46
2022/03/30 01:02:18;;;;;;;34.05;21.38;;;10.20;99.90;;;;;;5032233;28;20583;-47
2022/03/30 01:04:46;;;;;;;36.90;21.17;;;10.20;99.90;;;;;;5031923;28;20206;-46
2022/03/30 01:07:16;;;;;;;27.60;18.95;;;10.20;99.90;;;;;;5032090;28;20223;-47
2022/03/30 01:09:41;;;;;;;34.00;20.05;;;10.20;99.90;;;;;;5031831;28;20254;-47
2022/03/30 01:12:08;;;;;;;35.38;21.42;;;10.20;99.90;;;;;;5031801;28;20211;-47
2022/03/30 01:14:34;;;;;;;39.55;21.27;;;10.20;99.90;;;;;;5031755;28;20159;-47
2022/03/30 01:17:00;;;;;;;33.38;21.67;;;10.20;99.90;;;;;;5031705;28;20486;-47
2022/03/30 01:19:30;;;;;;;33.03;20.77;;;10.30;99.90;;;;;;5031875;28;20194;-47
2022/03/30 01:21:56;;;;;;;36.70;22.05;;;10.20;99.90;;;;;;5031743;28;20163;-46
2022/03/30 01:24:22;;;;;;;30.35;18.88;;;10.20;99.90;;;;;;5031867;28;20159;-47
2022/03/30 01:26:48;;;;;;;37.85;21.67;;;10.20;99.90;;;;;;5032010;28;20509;-47
2022/03/30 01:34:42;;;;;;;35.28;21.42;;;10.00;99.90;;;;;;5031666;28;20170;-47
2022/03/30 01:37:10;;;;;;;32.90;20.33;;;10.00;99.90;;;;;;5035323;28;20203;-47
2022/03/30 01:39:35;;;;;;;30.30;18.58;;;9.90;99.90;;;;;;5035307;28;20167;-47
2022/03/30 01:42:01;;;;;;;34.60;20.15;;;9.90;99.90;;;;;;5035240;28;20172;-46
2022/03/30 01:44:27;;;;;;;32.00;19.48;;;9.90;99.90;;;;;;5035315;28;20167;-46
2022/03/30 01:46:52;;;;;;;34.28;19.65;;;9.90;99.90;;;;;;5035194;28;20230;-46
2022/03/30 01:49:21;;;;;;;29.05;18.92;;;9.90;99.90;;;;;;5035468;28;20163;-47
2022/03/30 01:51:51;;;;;;;30.73;18.98;;;9.90;99.90;;;;;;5035440;28;20179;-47
2022/03/30 01:54:19;;;;;;;30.48;19.98;;;9.90;99.90;;;;;;5035377;28;20245;-47
2022/03/30 01:56:45;;;;;;;32.60;19.80;;;9.90;99.90;;;;;;5035213;28;20332;-46
2022/03/30 01:59:10;;;;;;;31.48;19.02;;;9.90;99.90;;;;;;5035307;28;20254;-47
2022/03/30 02:01:37;;;;;;;32.67;19.90;;;9.90;99.90;;;;;;5034918;28;20273;-47
2022/03/30 02:04:03;;;;;;;38.25;19.63;;;9.90;99.90;;;;;;5034908;28;20163;-48
2022/03/30 02:06:29;;;;;;;29.77;18.75;;;9.80;99.90;;;;;;5034845;28;20189;-48
2022/03/30 02:08:54;;;;;;;39.20;20.75;;;9.80;99.90;;;;;;5034845;28;20175;-48
2022/03/30 02:11:20;;;;;;;33.88;19.65;;;9.80;99.90;;;;;;5035081;28;20178;-48
2022/03/30 02:13:45;;;;;;;39.40;20.33;;;9.80;99.90;;;;;;5034697;28;20258;-49
2022/03/30 02:16:11;;;;;;;36.72;19.65;;;9.70;99.90;;;;;;5034721;28;20270;-48
2022/03/30 02:18:36;;;;;;;31.10;17.92;;;9.60;99.90;;;;;;5034640;28;20250;-48
2022/03/30 02:21:02;;;;;;;34.88;19.00;;;9.60;99.90;;;;;;5034694;28;20171;-49
2022/03/30 02:23:27;;;;;;;30.98;18.60;;;9.70;99.90;;;;;;5034818;28;20569;-47
2022/03/30 02:25:53;;;;;;;39.40;21.13;;;9.70;99.90;;;;;;5034562;28;20213;-48
2022/03/30 02:28:18;;;;;;;36.05;20.27;;;9.70;99.90;;;;;;5034870;28;20225;-48
2022/03/30 02:30:44;;;;;;;38.95;20.08;;;9.60;99.90;;;;;;5034395;28;20176;-49
2022/03/30 02:33:09;;;;;;;31.20;19.27;;;9.60;99.90;;;;;;5034500;28;20163;-47
2022/03/30 02:35:35;;;;;;;31.10;19.50;;;9.60;99.90;;;;;;5034332;28;20183;-49
2022/03/30 02:38:01;;;;;;;36.78;21.40;;;9.60;99.90;;;;;;5034299;28;20175;-47
2022/03/30 02:40:26;;;;;;;33.08;20.48;;;9.60;99.90;;;;;;5034323;28;20168;-46
2022/03/30 02:42:52;;;;;;;33.80;20.63;;;9.50;99.90;;;;;;5034265;28;20258;-47
2022/03/30 02:45:17;;;;;;;32.80;20.40;;;9.50;99.90;;;;;;5034521;28;20164;-46
2022/03/30 02:50:27;;;;;;;34.17;20.63;;;9.50;99.90;;;;;;5034149;28;20174;-46
2022/03/30 02:52:53;;;;;;;34.58;20.80;;;9.50;99.90;;;;;;5034029;28;20159;-46
2022/03/30 02:55:18;;;;;;;34.00;20.70;;;9.50;99.90;;;;;;5034457;28;20564;-49
2022/03/30 02:57:46;;;;;;;37.13;20.15;;;9.60;99.90;;;;;;5033964;28;20218;-49
2022/03/30 03:00:12;;;;;;;32.90;19.98;;;9.50;99.90;;;;;;5034152;28;20531;-52
2022/03/30 03:02:37;;;;;;;33.40;20.85;;;9.50;99.90;;;;;;5034143;28;20179;-47
2022/03/30 03:05:03;;;;;;;32.83;21.05;;;9.50;99.90;;;;;;5033810;28;20662;-47
2022/03/30 03:07:29;;;;;;;41.97;22.73;;;9.50;99.90;;;;;;5034027;28;20250;-46
2022/03/30 03:09:54;;;;;;;36.58;21.33;;;9.50;99.90;;;;;;5033620;28;20631;-47
2022/03/30 03:12:21;;;;;;;33.85;20.70;;;9.40;99.90;;;;;;5033939;28;20684;-47
2022/03/30 03:14:46;;;;;;;32.17;19.60;;;9.40;99.90;;;;;;5033807;28;20175;-47
2022/03/30 03:17:12;;;;;;;32.85;21.90;;;9.30;99.90;;;;;;5033706;28;20655;-47
2022/03/30 03:19:38;;;;;;;35.75;21.35;;;9.30;99.90;;;;;;5033526;28;20499;-47
2022/03/30 03:22:04;;;;;;;34.58;21.25;;;9.40;99.90;;;;;;5033656;28;20175;-48
2022/03/30 03:24:30;;;;;;;33.80;20.13;;;9.40;99.90;;;;;;5033351;28;20170;-47
2022/03/30 03:26:55;;;;;;;38.97;21.45;;;9.30;99.90;;;;;;5033313;28;20531;-47
2022/03/30 03:29:21;;;;;;;29.20;19.25;;;9.30;99.90;;;;;;5033510;28;20164;-47
2022/03/30 03:31:46;;;;;;;39.92;20.38;;;9.20;99.90;;;;;;5033209;28;20175;-47
2022/03/30 03:34:12;;;;;;;31.40;20.00;;;9.20;99.90;;;;;;5033177;28;20172;-48
2022/03/30 03:36:37;;;;;;;34.58;20.20;;;9.20;99.90;;;;;;5033068;28;20211;-47
2022/03/30 03:39:03;;;;;;;34.53;19.77;;;9.20;99.90;;;;;;5033150;28;20569;-46
2022/03/30 03:41:28;;;;;;;38.20;20.63;;;9.20;99.90;;;;;;5033052;28;20182;-47
2022/03/30 03:43:54;;;;;;;30.77;20.50;;;9.10;99.90;;;;;;5033261;28;20525;-47
2022/03/30 03:46:20;;;;;;;42.30;21.30;;;9.00;99.90;;;;;;5033175;28;20210;-48
2022/03/30 03:48:46;;;;;;;40.30;20.08;;;9.10;99.90;;;;;;5033230;28;20175;-48
2022/03/30 03:51:11;;;;;;;34.17;20.27;;;9.10;99.90;;;;;;5032792;28;20573;-47
2022/03/30 03:53:37;;;;;;;37.45;19.45;;;9.10;99.90;;;;;;5032808;28;20178;-46
2022/03/30 03:56:04;;;;;;;33.13;20.02;;;9.00;99.90;;;;;;5032789;28;20187;-46
2022/03/30 03:58:29;;;;;;;32.85;20.08;;;9.00;99.90;;;;;;5032274;28;20639;-46
2022/03/30 04:00:55;;;;;;;36.50;21.08;;;9.00;99.90;;;;;;5032788;28;20232;-46
2022/03/30 04:03:21;;;;;;;36.60;20.17;;;9.00;99.90;;;;;;5033192;28;20262;-46
2022/03/30 04:05:47;;;;;;;33.50;19.52;;;9.00;99.90;;;;;;5033146;28;20247;-47
2022/03/30 04:08:12;;;;;;;33.97;19.42;;;8.90;99.90;;;;;;5032634;28;20531;-47
2022/03/30 04:10:38;;;;;;;40.22;20.23;;;9.00;99.90;;;;;;5032675;28;20172;-47
2022/03/30 04:13:07;;;;;;;32.47;20.55;;;8.90;99.90;;;;;;5032412;28;20183;-47
2022/03/30 04:15:37;;;;;;;34.08;19.52;;;8.90;99.90;;;;;;5032615;28;20246;-47
2022/03/30 04:18:04;;;;;;;30.00;18.75;;;8.90;99.90;;;;;;5032678;28;20183;-47
2022/03/30 04:20:29;;;;;;;34.53;20.30;;;8.90;99.90;;;;;;5032661;28;20171;-47
2022/03/30 04:22:55;;;;;;;33.70;20.42;;;8.90;99.90;;;;;;5032381;28;20175;-47
2022/03/30 04:25:21;;;;;;;38.63;21.55;;;8.90;99.90;;;;;;5032735;28;20164;-47
2022/03/30 04:27:48;;;;;;;36.20;19.98;;;8.90;99.90;;;;;;5032549;28;20164;-47
2022/03/30 04:30:15;;;;;;;33.42;20.02;;;8.90;99.90;;;;;;5032545;28;20221;-47
2022/03/30 04:32:41;;;;;;;36.03;20.40;;;8.80;99.90;;;;;;5032500;28;20237;-47
2022/03/30 04:35:07;;;;;;;43.63;20.83;;;8.80;99.90;;;;;;5032215;28;20171;-47
2022/03/30 04:37:33;;;;;;;35.35;19.48;;;8.80;99.90;;;;;;5032351;28;20214;-47
2022/03/30 04:39:59;;;;;;;38.05;19.25;;;8.80;99.90;;;;;;5032234;28;20221;-47
2022/03/30 04:42:24;;;;;;;29.17;20.00;;;8.80;99.90;;;;;;5032193;28;20172;-47
2022/03/30 04:44:50;;;;;;;33.80;18.85;;;8.80;99.90;;;;;;5032441;28;20182;-47
2022/03/30 04:47:16;;;;;;;37.33;21.83;;;8.70;99.90;;;;;;5032019;28;20223;-47
2022/03/30 04:49:41;;;;;;;35.25;20.60;;;8.70;99.90;;;;;;5031947;28;20290;-46
2022/03/30 04:52:07;;;;;;;34.40;19.80;;;8.70;99.90;;;;;;5032055;28;20179;-46
2022/03/30 04:54:33;;;;;;;42.25;20.58;;;8.70;99.90;;;;;;5031939;28;20208;-48
2022/03/30 04:56:58;;;;;;;38.75;20.60;;;8.70;99.90;;;;;;5031667;28;20207;-47
2022/03/30 04:59:24;;;;;;;35.47;19.90;;;8.70;99.90;;;;;;5031940;28;20167;-46
2022/03/30 05:01:49;;;;;;;37.35;20.58;;;8.70;99.90;;;;;;5032267;28;20164;-46
2022/03/30 05:04:15;;;;;;;37.22;19.23;;;8.70;99.90;;;;;;5031931;28;20175;-46
2022/03/30 05:06:41;;;;;;;36.88;19.67;;;8.70;99.90;;;;;;5031525;28;20171;-46
2022/03/30 05:09:06;;;;;;;34.88;19.00;;;8.60;99.90;;;;;;5026175;28;20167;-48
2022/03/30 05:11:32;;;;;;;40.25;21.10;;;8.50;99.90;;;;;;5034333;28;20623;-47
2022/03/30 05:13:58;;;;;;;35.70;20.55;;;8.40;99.90;;;;;;5035843;28;20176;-48
2022/03/30 05:16:23;;;;;;;40.17;21.15;;;8.40;99.90;;;;;;5051016;28;20202;-47
2022/03/30 05:18:49;;;;;;;33.50;19.98;;;8.40;99.90;;;;;;5035894;28;20233;-47
2022/03/30 05:21:14;;;;;;;38.75;20.25;;;8.40;99.90;;;;;;5035487;28;20209;-46
2022/03/30 05:23:40;;;;;;;36.75;19.33;;;8.30;99.90;;;;;;5035808;28;20198;-46
2022/03/30 05:26:05;;;;;;;34.78;20.40;;;8.30;99.90;;;;;;5035491;28;20176;-47
2022/03/30 05:28:31;;;;;;;36.60;20.13;;;8.30;99.90;;;;;;5035762;28;20175;-46
2022/03/30 05:30:57;;;;;;;38.03;20.20;;;8.30;99.90;;;;;;5035684;28;20176;-47
2022/03/30 05:33:22;;;;;;;33.30;20.67;;;8.30;99.90;;;;;;5050390;28;20530;-47
2022/03/30 05:35:50;;;;;;;36.40;20.50;;;8.30;99.90;;;;;;5035508;28;20266;-47
2022/03/30 05:38:16;;;;;;;36.78;20.80;;;8.20;99.90;;;;;;5035183;28;20636;-47
2022/03/30 05:40:42;;;;;;;34.63;19.80;;;8.20;99.90;;;;;;5035031;28;20537;-47
2022/03/30 05:43:07;;;;;;;39.60;19.45;;;8.30;99.90;;;;;;5034883;28;20179;-47
2022/03/30 05:45:33;;;;;;;34.55;20.70;;;8.20;99.90;;;;;;5034759;28;20229;-46
2022/03/30 05:47:59;;;;;;;38.40;20.17;;;8.30;99.90;;;;;;5034498;28;20223;-47
2022/03/30 05:50:25;;;;;;;39.42;20.35;;;8.40;99.90;;;;;;5034756;28;20709;-46
2022/03/30 05:52:51;;;;;;;32.55;19.83;;;8.40;99.90;;;;;;5035530;28;20203;-46
2022/03/30 05:55:17;;;;;;;39.70;20.60;;;8.50;99.90;;;;;;5035491;28;20258;-46
2022/03/30 05:57:43;;;;;;;37.47;20.98;;;8.40;99.90;;;;;;5034826;28;20211;-47
2022/03/30 06:00:10;;;;;;;37.90;21.55;;;8.40;99.90;;;;;;5034855;28;20168;-47
2022/03/30 06:02:37;;;;;;;31.38;19.77;;;8.50;99.90;;;;;;5035060;28;20170;-48
2022/03/30 06:05:04;;;;;;;39.35;21.83;;;8.50;99.90;;;;;;5035457;28;20179;-49
2022/03/30 06:07:30;;;;;;;37.03;19.73;;;8.50;99.90;;;;;;5035176;28;20273;-48
2022/03/30 06:09:56;;;;;;;40.63;21.55;;;8.50;99.90;;;;;;5034907;28;20623;-48
2022/03/30 06:12:24;;;;;;;40.50;19.30;;;8.50;99.90;;;;;;5035182;28;20171;-47
2022/03/30 06:14:51;;;;;;;37.90;20.05;;;8.50;99.90;;;;;;5035134;28;20191;-48
2022/03/30 06:17:18;;;;;;;38.90;20.73;;;8.50;99.90;;;;;;5050253;28;20207;-47
2022/03/30 06:19:47;;;;;;;35.80;19.55;;;8.60;99.90;;;;;;5049973;28;20171;-48
2022/03/30 06:22:13;;;;;;;35.28;20.58;;;8.50;99.90;;;;;;5033996;28;20639;-47
2022/03/30 06:24:40;;;;;;;43.33;21.95;;;8.50;99.90;;;;;;5034541;28;20280;-47
2022/03/30 06:27:07;;;;;;;40.47;21.05;;;8.60;99.90;;;;;;5033619;28;20204;-49
2022/03/30 06:29:34;;;;;;;38.33;20.20;;;8.70;99.90;;;;;;5034693;28;20174;-48
2022/03/30 06:32:00;;;;;;;43.63;20.92;;;8.60;99.90;;;;;;5034319;28;20542;-48
2022/03/30 06:34:26;;;;;;;40.95;20.77;;;8.80;99.90;;;;;;5034403;28;20168;-48
2022/03/30 06:36:51;;;;;;;36.05;19.83;;;8.80;99.90;;;;;;5034180;28;20211;-47
2022/03/30 06:39:17;;;;;;;35.08;21.92;;;9.00;99.90;;;;;;5049895;28;20249;-47
2022/03/30 06:41:44;;;;;;;34.33;20.50;;;8.90;99.90;;;;;;5033968;28;20174;-46
2022/03/30 06:44:09;;;;;;;36.30;20.63;;;9.00;99.90;;;;;;5032605;28;20643;-46
2022/03/30 06:46:38;;;;;;;35.55;20.85;;;9.00;99.90;;;;;;5032788;28;20234;-47
2022/03/30 06:49:04;;;;;;;33.92;18.52;;;9.00;99.90;;;;;;5031243;28;20183;-45
2022/03/30 06:51:30;;;;;;;37.03;20.02;;;8.80;99.90;;;;;;5032777;28;20243;-47
2022/03/30 06:53:56;;;;;;;37.95;21.45;;;8.60;99.90;;;;;;5032430;28;20550;-47
2022/03/30 06:56:21;;;;;;;41.17;21.88;;;8.60;99.90;;;;;;5032303;28;20713;-47
2022/03/30 06:58:47;;;;;;;38.03;20.10;;;8.70;99.90;;;;;;5033780;28;20221;-47
2022/03/30 07:01:15;;;;;;;40.15;20.58;;;8.90;99.90;;;;;;5033856;28;20209;-46
2022/03/30 07:03:41;;;;;;;41.28;19.48;;;9.00;99.90;;;;;;5033774;28;20173;-46
2022/03/30 07:06:06;;;;;;;38.55;20.77;;;9.00;99.90;;;;;;5034144;28;20604;-46
2022/03/30 07:11:17;;;;;;;39.25;20.23;;;9.10;99.90;;;;;;5033552;28;20225;-48
2022/03/30 07:13:44;;;;;;;38.28;20.70;;;9.20;99.90;;;;;;5032274;28;20168;-48
2022/03/30 07:16:09;;;;;;;35.67;21.20;;;9.20;99.90;;;;;;5033539;28;20252;-48
2022/03/30 07:18:35;;;;;;;37.05;19.88;;;9.20;99.90;;;;;;5033748;28;20184;-48
2022/03/30 07:21:01;;;;;;;34.97;19.25;;;9.30;99.90;;;;;;5033443;28;20171;-46
2022/03/30 07:23:26;;;;;;;39.53;20.65;;;9.30;99.90;;;;;;5033605;28;20182;-46
2022/03/30 07:25:52;;;;;;;37.50;20.77;;;9.30;99.90;;;;;;5033313;28;20498;-46
2022/03/30 07:28:18;;;;;;;37.67;20.42;;;9.40;99.90;;;;;;5033630;28;20171;-46
2022/03/30 07:30:45;;;;;;;34.38;20.23;;;9.40;99.90;;;;;;5033317;28;20176;-46
2022/03/30 07:33:11;;;;;;;37.80;21.33;;;9.30;99.90;;;;;;5032695;28;20179;-46
2022/03/30 07:35:39;;;;;;;35.70;21.55;;;9.40;99.90;;;;;;5033266;28;20655;-46
2022/03/30 07:38:05;;;;;;;35.72;20.08;;;9.60;99.90;;;;;;5033129;28;20664;-46
2022/03/30 07:40:32;;;;;;;37.03;20.33;;;9.60;99.90;;;;;;5033396;28;20262;-46
2022/03/30 07:42:58;;;;;;;35.60;20.25;;;9.70;99.90;;;;;;5033317;28;20175;-46
2022/03/30 07:45:24;;;;;;;32.35;19.00;;;9.80;99.90;;;;;;5033045;28;20657;-46
2022/03/30 07:47:51;;;;;;;41.78;19.65;;;9.80;99.90;;;;;;5033111;28;20223;-46
2022/03/30 07:50:17;;;;;;;34.17;20.58;;;9.70;99.90;;;;;;5033155;28;20652;-46
2022/03/30 07:52:43;;;;;;;37.17;19.70;;;9.70;99.90;;;;;;5032926;28;20174;-46
2022/03/30 07:55:11;;;;;;;35.30;20.25;;;9.70;99.90;;;;;;5032847;28;20627;-46
2022/03/30 07:57:39;;;;;;;34.67;22.05;;;9.80;99.90;;;;;;5032627;28;20685;-46
2022/03/30 08:00:10;;;;;;;33.10;19.75;;;9.90;99.90;;;;;;5032652;28;20643;-46
2022/03/30 08:02:36;;;;;;;41.97;20.13;;;9.90;99.90;;;;;;5032961;28;20175;-47
2022/03/30 08:05:02;;;;;;;32.30;17.85;;;10.00;99.90;;;;;;5032906;28;20172;-47
2022/03/30 08:07:30;;;;;;;30.95;19.15;;;10.00;99.90;;;;;;5032557;28;20171;-47
2022/03/30 08:09:56;;;;;;;38.92;20.83;;;10.10;99.90;;;;;;5031305;28;20249;-48
2022/03/30 08:12:22;;;;;;;38.00;18.50;;;10.20;99.90;;;;;;5032524;28;20175;-46
2022/03/30 08:14:48;;;;;;;30.20;19.70;;;10.10;99.90;;;;;;5032667;28;20258;-46
2022/03/30 08:17:14;;;;;;;36.58;19.98;;;10.30;99.90;;;;;;5032643;28;20297;-46
2022/03/30 08:19:40;;;;;;;33.70;18.73;;;10.50;99.90;;;;;;5032383;28;20171;-47
2022/03/30 08:24:51;;;;;;;38.80;20.50;;;10.70;99.90;;;;;;5032935;28;20249;-47
2022/03/30 08:27:18;;;;;;;35.53;20.50;;;12.80;99.90;;;;;;5032568;28;20209;-47
2022/03/30 08:29:44;;;;;;;29.85;18.70;;;10.90;99.90;;;;;;5032285;28;20648;-47
2022/03/30 08:32:15;;;;;;;42.70;20.65;;;10.90;99.90;;;;;;5032541;28;20179;-47
2022/03/30 08:34:42;;;;;;;32.38;18.63;;;11.10;99.90;;;;;;5032254;28;20615;-47
2022/03/30 08:37:08;;;;;;;30.70;17.50;;;11.20;99.90;;;;;;5032092;28;20674;-47
2022/03/30 08:39:35;;;;;;;31.55;17.23;;;11.20;99.90;;;;;;5032366;28;20171;-46
2022/03/30 08:42:03;;;;;;;26.75;15.98;;;11.20;99.90;;;;;;5032341;28;20190;-46
2022/03/30 08:44:29;;;;;;;30.20;15.75;;;11.00;99.90;;;;;;5032099;28;20205;-48
2022/03/30 08:46:54;;;;;;;20.60;12.45;;;11.00;99.90;;;;;;5030735;28;20218;-46
2022/03/30 08:49:20;;;;;;;25.88;15.68;;;11.10;99.90;;;;;;5032419;28;20246;-47
2022/03/30 08:51:47;;;;;;;29.30;15.52;;;11.20;99.90;;;;;;5032200;28;20167;-46
2022/03/30 08:54:14;;;;;;;28.95;17.02;;;11.40;99.90;;;;;;5032015;28;20191;-47
2022/03/30 08:56:41;;;;;;;22.88;13.65;;;11.60;99.90;;;;;;5031861;28;20198;-46
2022/03/30 08:59:09;;;;;;;34.80;16.58;;;11.70;99.90;;;;;;5031964;28;20183;-46
2022/03/30 09:01:37;;;;;;;33.10;15.77;;;11.80;99.90;;;;;;5031911;28;20171;-46
2022/03/30 09:04:12;;;;;;;32.58;15.93;;;11.60;99.90;;;;;;5031910;28;20242;-47
2022/03/30 09:06:47;;;;;;;26.67;17.02;;;11.60;99.90;;;;;;5032248;28;20174;-47
2022/03/30 09:09:14;;;;;;;32.85;16.67;;;11.40;99.90;;;;;;5031832;28;20627;-46
2022/03/30 09:11:53;;;;;;;28.33;17.23;;;11.40;99.90;;;;;;5032113;28;20546;-46
2022/03/30 09:14:20;;;;;;;29.55;16.42;;;11.60;99.90;;;;;;5032157;28;20250;-46
2022/03/30 09:16:52;;;;;;;33.25;16.80;;;11.50;99.90;;;;;;5032014;28;20198;-46
2022/03/30 09:19:20;;;;;;;26.27;15.82;;;11.70;99.90;;;;;;5032085;28;20298;-46
2022/03/30 09:21:55;;;;;;;30.20;16.65;;;12.00;99.90;;;;;;5032038;28;20301;-46
2022/03/30 09:24:24;;;;;;;30.33;16.23;;;12.20;99.90;;;;;;5032329;28;20573;-46
2022/03/30 09:26:51;;;;;;;24.48;15.95;;;12.10;99.90;;;;;;5032022;28;20536;-46
2022/03/30 09:29:20;;;;;;;26.52;16.23;;;12.10;99.90;;;;;;5032080;28;20251;-46
2022/03/30 09:31:48;;;;;;;27.63;15.65;;;12.10;99.90;;;;;;5032242;28;20211;-46
2022/03/30 09:34:14;;;;;;;27.83;15.02;;;12.20;99.90;;;;;;5031633;28;20186;-47
2022/03/30 09:36:41;;;;;;;22.52;13.70;;;12.30;99.90;;;;;;5031799;28;20290;-46
2022/03/30 09:39:12;;;;;;;23.33;14.93;;;12.20;99.90;;;;;;5031571;28;20167;-46
2022/03/30 09:41:52;;;;;;;22.83;13.80;;;12.10;99.90;;;;;;5031596;28;20172;-46
2022/03/30 09:44:18;;;;;;;24.75;14.15;;;12.40;99.90;;;;;;5031794;28;20533;-46
2022/03/30 09:46:56;;;;;;;24.63;15.02;;;12.30;99.90;;;;;;5031433;28;20219;-46
2022/03/30 09:49:32;;;;;;;21.40;15.50;;;12.50;99.90;;;;;;5031770;28;20178;-46
2022/03/30 09:51:58;;;;;;;26.75;16.30;;;12.80;99.90;;;;;;5031113;28;20179;-46
2022/03/30 09:54:37;;;;;;;27.15;14.98;;;12.60;99.90;;;;;;5030926;28;20282;-46
2022/03/30 09:57:12;;;;;;;23.90;14.23;;;12.60;99.90;;;;;;5032784;28;20659;-47
2022/03/30 10:00:14;;;;;;;25.70;13.77;;;12.80;99.90;;;;;;5034993;28;20237;-46
2022/03/30 10:02:47;;;;;;;21.30;13.07;;;12.70;99.90;;;;;;5035003;28;20178;-46
2022/03/30 10:05:21;;;;;;;17.73;11.88;;;12.70;99.90;;;;;;5034890;28;20175;-46
2022/03/30 10:07:47;;;;;;;23.17;13.43;;;12.50;99.90;;;;;;5035389;28;20174;-47
2022/03/30 10:10:16;;;;;;;17.27;12.40;;;12.90;99.90;;;;;;5034803;28;20672;-46
2022/03/30 10:12:42;;;;;;;19.05;12.60;;;13.00;99.90;;;;;;5034956;28;20201;-46
2022/03/30 10:15:09;;;;;;;16.85;9.77;;;12.90;99.90;;;;;;5034707;28;20171;-46
2022/03/30 10:17:36;;;;;;;20.45;11.63;;;12.70;99.90;;;;;;5034354;28;20214;-46
2022/03/30 10:20:03;;;;;;;18.23;12.23;;;12.60;99.90;;;;;;5034619;28;20181;-46
2022/03/30 10:22:51;;;;;;;23.85;12.95;;;12.80;99.90;;;;;;5034752;28;20539;-46
2022/03/30 10:25:53;;;;;;;21.02;11.70;;;13.00;99.90;;;;;;5034950;28;20167;-46
2022/03/30 10:28:26;;;;;;;20.38;11.75;;;13.10;99.90;;;;;;5034735;28;20631;-47
2022/03/30 10:30:54;;;;;;;23.33;11.90;;;13.20;99.90;;;;;;5034590;28;20168;-46
2022/03/30 10:33:33;;;;;;;20.60;11.85;;;13.40;99.90;;;;;;5034775;28;20203;-47
2022/03/30 10:36:28;;;;;;;14.98;10.13;;;13.40;99.90;;;;;;5034298;28;20726;-47
2022/03/30 10:39:14;;;;;;;21.13;11.70;;;13.10;99.90;;;;;;5034503;28;20179;-47
2022/03/30 10:42:08;;;;;;;19.48;11.25;;;13.40;99.90;;;;;;5034474;28;20175;-47
2022/03/30 10:44:35;;;;;;;22.45;13.75;;;13.50;99.90;;;;;;5034034;28;20222;-47
2022/03/30 10:47:22;;;;;;;20.15;12.75;;;13.60;99.90;;;;;;5033979;28;20215;-47
2022/03/30 10:49:56;;;;;;;20.23;11.65;;;13.70;99.90;;;;;;5034563;28;20202;-47
2022/03/30 10:52:32;;;;;;;20.65;11.65;;;13.60;99.90;;;;;;5034086;28;20159;-48
2022/03/30 10:55:12;;;;;;;20.48;11.95;;;13.80;99.90;;;;;;5034045;28;20543;-47
2022/03/30 10:57:53;;;;;;;18.30;11.63;;;14.00;99.90;;;;;;5033760;28;20207;-47
2022/03/30 11:00:27;;;;;;;18.45;12.30;;;14.20;99.90;;;;;;5034135;28;20164;-47
2022/03/30 11:03:20;;;;;;;21.30;11.70;;;14.20;99.90;;;;;;5033549;28;20182;-47
2022/03/30 11:06:00;;;;;;;16.45;12.00;;;14.10;99.90;;;;;;5033652;28;20159;-47
2022/03/30 11:08:32;;;;;;;16.10;10.30;;;14.20;99.90;;;;;;5033704;28;20761;-47
2022/03/30 11:11:00;;;;;;;18.35;11.50;;;13.70;99.90;;;;;;5033615;28;20179;-47
2022/03/30 11:13:27;;;;;;;23.65;12.00;;;14.10;99.90;;;;;;5033561;28;20250;-47
2022/03/30 11:16:01;;;;;;;17.00;10.63;;;14.30;99.90;;;;;;5033782;28;20167;-47
2022/03/30 11:18:28;;;;;;;18.02;11.07;;;14.50;99.90;;;;;;5032124;28;20268;-47
2022/03/30 11:21:09;;;;;;;18.50;11.43;;;14.30;99.90;;;;;;5033277;28;20160;-46
2022/03/30 11:23:38;;;;;;;18.02;12.50;;;14.20;99.90;;;;;;5033099;28;20175;-47
2022/03/30 11:26:04;;;;;;;18.92;12.38;;;14.30;99.90;;;;;;5033527;28;20155;-45
2022/03/30 11:28:40;;;;;;;18.92;12.38;;;14.20;99.90;;;;;;5033703;28;20171;-47
2022/03/30 11:31:22;;;;;;;19.02;11.68;;;14.10;99.90;;;;;;5033343;28;20656;-46
2022/03/30 11:34:28;;;;;;;17.88;11.73;;;14.10;99.90;;;;;;5033548;28;20172;-47
2022/03/30 11:36:54;;;;;;;16.90;11.90;;;14.10;99.90;;;;;;5033099;28;20226;-47
2022/03/30 11:39:28;;;;;;;16.55;11.20;;;14.10;99.90;;;;;;5033573;28;20164;-45
2022/03/30 11:41:54;;;;;;;16.85;11.88;;;14.30;99.90;;;;;;5033181;28;20174;-45
2022/03/30 11:47:13;;;;;;;21.38;13.02;;;14.30;99.90;;;;;;5032886;28;20319;-47
2022/03/30 11:49:52;;;;;;;19.92;11.68;;;14.20;99.90;;;;;;5033127;28;20179;-47
2022/03/30 11:52:18;;;;;;;20.35;12.80;;;14.50;99.90;;;;;;5033337;28;20256;-47
2022/03/30 11:54:52;;;;;;;15.43;11.48;;;14.70;99.90;;;;;;5032926;28;20171;-47
2022/03/30 11:57:19;;;;;;;20.45;12.88;;;14.80;99.90;;;;;;5033042;28;20210;-47
2022/03/30 12:00:02;;;;;;;17.15;12.05;;;14.80;99.90;;;;;;5032887;28;20561;-48
2022/03/30 12:02:28;;;;;;;15.45;10.98;;;15.00;99.90;;;;;;5032979;28;20578;-47
2022/03/30 12:04:55;;;;;;;22.23;12.02;;;15.00;99.90;;;;;;5032629;28;20630;-47
2022/03/30 12:07:22;;;;;;;19.05;11.77;;;14.90;99.90;;;;;;5032721;28;20175;-46
2022/03/30 12:09:49;;;;;;;17.27;11.00;;;15.00;99.90;;;;;;5033146;28;20520;-47
2022/03/30 12:12:35;;;;;;;19.15;11.55;;;15.00;99.90;;;;;;5032809;28;20202;-47
2022/03/30 12:15:11;;;;;;;18.38;11.60;;;15.00;99.60;;;;;;5032179;28;20163;-47
2022/03/30 12:17:37;;;;;;;18.52;11.48;;;15.10;98.70;;;;;;5032532;28;20211;-48
2022/03/30 12:20:08;;;;;;;17.08;11.13;;;15.10;99.80;;;;;;5031073;28;20325;-47
2022/03/30 12:22:35;;;;;;;14.13;10.23;;;15.20;98.10;;;;;;5032352;28;20537;-47
2022/03/30 12:25:01;;;;;;;15.23;10.70;;;15.10;97.50;;;;;;5032498;28;20168;-47
2022/03/30 12:27:27;;;;;;;18.27;11.20;;;15.10;98.30;;;;;;5031059;28;20171;-47
2022/03/30 12:29:56;;;;;;;17.13;10.55;;;15.20;98.30;;;;;;5032564;28;20166;-47
2022/03/30 12:32:26;;;;;;;16.98;10.32;;;15.20;97.10;;;;;;5032311;28;20302;-46
2022/03/30 12:35:14;;;;;;;16.38;10.25;;;14.90;97.30;;;;;;5032130;28;20542;-47
2022/03/30 12:37:43;;;;;;;16.30;12.00;;;14.80;96.90;;;;;;5032104;28;20598;-47
2022/03/30 12:40:20;;;;;;;18.45;11.57;;;15.20;97.90;;;;;;5032386;28;20175;-47
2022/03/30 12:42:49;;;;;;;17.85;11.15;;;15.40;98.20;;;;;;5032378;28;20221;-47
2022/03/30 12:45:17;;;;;;;21.40;11.70;;;15.60;98.00;;;;;;5032008;28;20662;-47
2022/03/30 12:47:54;;;;;;;18.13;11.35;;;15.50;97.40;;;;;;5031957;28;20229;-47
2022/03/30 12:50:26;;;;;;;24.88;10.57;;;15.40;98.70;;;;;;5032550;28;20175;-47
2022/03/30 12:52:54;;;;;;;16.02;10.73;;;15.00;94.30;;;;;;5032075;28;20159;-47
2022/03/30 12:55:33;;;;;;;13.32;9.13;;;15.20;95.00;;;;;;5032507;28;20171;-47